createdAt,value
2022-12-18T00:01:26.424Z,-4.91
2022-12-18T00:03:54.867Z,-4.92
2022-12-18T00:06:23.139Z,-4.91
2022-12-18T00:08:50.240Z,-4.92
2022-12-18T00:11:19.411Z,-4.96
2022-12-18T00:13:47.133Z,-5.04
2022-12-18T00:16:19.412Z,-5.00
2022-12-18T00:18:47.579Z,-4.98
2022-12-18T00:21:15.783Z,-4.96
2022-12-18T00:23:44.858Z,-4.97
2022-12-18T00:26:17.860Z,-5.02
2022-12-18T00:28:45.827Z,-4.98
2022-12-18T00:31:19.373Z,-4.99
2022-12-18T00:33:46.655Z,-5.03
2022-12-18T00:36:19.258Z,-5.09
2022-12-18T00:38:47.343Z,-5.15
2022-12-18T00:41:36.945Z,-5.11
2022-12-18T00:44:05.024Z,-5.12
2022-12-18T00:46:33.101Z,-5.13
2022-12-18T00:49:00.170Z,-5.17
2022-12-18T00:51:27.625Z,-5.15
2022-12-18T00:53:54.673Z,-5.15
2022-12-18T00:56:25.174Z,-5.20
2022-12-18T00:58:52.190Z,-5.27
2022-12-18T01:01:19.532Z,-5.25
2022-12-18T01:03:47.548Z,-5.28
2022-12-18T01:06:16.894Z,-5.29
2022-12-18T01:08:44.561Z,-5.28
2022-12-18T01:11:14.642Z,-5.37
2022-12-18T01:13:42.025Z,-5.40
2022-12-18T01:16:11.753Z,-5.39
2022-12-18T01:18:39.170Z,-5.42
2022-12-18T01:21:11.035Z,-5.47
2022-12-18T01:23:39.043Z,-5.46
2022-12-18T01:26:08.670Z,-5.42
2022-12-18T01:28:39.335Z,-5.39
2022-12-18T01:31:20.758Z,-5.41
2022-12-18T01:33:48.111Z,-5.42
2022-12-18T01:36:27.226Z,-5.38
2022-12-18T01:38:55.472Z,-5.42
2022-12-18T01:41:48.875Z,-5.38
2022-12-18T01:45:03.806Z,-5.30
2022-12-18T01:47:40.728Z,-5.28
2022-12-18T01:50:29.617Z,-5.29
2022-12-18T01:53:07.114Z,-5.30
2022-12-18T01:55:41.316Z,-5.36
2022-12-18T01:58:08.435Z,-5.29
2022-12-18T02:00:36.657Z,-5.32
2022-12-18T02:03:03.926Z,-5.36
2022-12-18T02:05:45.014Z,-5.36
2022-12-18T02:08:21.771Z,-5.48
2022-12-18T02:11:08.044Z,-5.42
2022-12-18T02:14:12.199Z,-5.43
2022-12-18T02:16:54.453Z,-5.49
2022-12-18T02:19:47.558Z,-5.59
2022-12-18T02:22:39.688Z,-5.55
2022-12-18T02:25:25.047Z,-5.57
2022-12-18T02:27:55.548Z,-5.63
2022-12-18T02:30:23.210Z,-5.67
2022-12-18T02:32:53.861Z,-5.64
2022-12-18T02:35:25.091Z,-5.66
2022-12-18T02:37:53.955Z,-5.76
2022-12-18T02:40:24.473Z,-5.71
2022-12-18T02:42:51.476Z,-5.77
2022-12-18T02:45:19.215Z,-5.78
2022-12-18T02:47:49.363Z,-5.75
2022-12-18T02:50:34.379Z,-5.77
2022-12-18T02:53:15.543Z,-5.81
2022-12-18T02:55:48.245Z,-5.82
2022-12-18T02:58:21.811Z,-5.90
2022-12-18T03:01:12.985Z,-5.88
2022-12-18T03:04:08.539Z,-5.97
2022-12-18T03:06:42.647Z,-5.93
2022-12-18T03:09:15.772Z,-5.95
2022-12-18T03:12:07.256Z,-6.00
2022-12-18T03:14:38.351Z,-6.01
2022-12-18T03:17:10.075Z,-6.03
2022-12-18T03:19:40.207Z,-6.16
2022-12-18T03:22:08.724Z,-6.07
2022-12-18T03:24:39.981Z,-6.12
2022-12-18T03:27:12.475Z,-6.13
2022-12-18T03:29:45.479Z,-6.14
2022-12-18T03:32:21.440Z,-6.23
2022-12-18T03:34:52.255Z,-6.21
2022-12-18T03:37:19.489Z,-6.17
2022-12-18T03:39:46.597Z,-6.24
2022-12-18T03:42:21.573Z,-6.27
2022-12-18T03:45:02.894Z,-6.22
2022-12-18T03:47:47.932Z,-6.22
2022-12-18T03:50:23.091Z,-6.23
2022-12-18T03:53:03.168Z,-6.29
2022-12-18T03:55:33.694Z,-6.29
2022-12-18T03:58:04.410Z,-6.24
2022-12-18T04:00:32.788Z,-6.44
2022-12-18T04:03:02.313Z,-6.30
2022-12-18T04:05:30.787Z,-6.37
2022-12-18T04:07:58.695Z,-6.37
2022-12-18T04:10:25.707Z,-6.33
2022-12-18T04:12:57.326Z,-6.34
2022-12-18T04:15:24.747Z,-6.40
2022-12-18T04:17:51.888Z,-6.40
2022-12-18T04:20:18.988Z,-6.38
2022-12-18T04:22:46.005Z,-6.43
2022-12-18T04:25:13.789Z,-6.43
2022-12-18T04:27:41.075Z,-6.50
2022-12-18T04:30:09.166Z,-6.45
2022-12-18T04:32:40.956Z,-6.46
2022-12-18T04:35:11.477Z,-6.57
2022-12-18T04:37:38.594Z,-6.55
2022-12-18T04:40:07.663Z,-6.52
2022-12-18T04:42:35.091Z,-6.53
2022-12-18T04:45:02.813Z,-6.65
2022-12-18T04:47:29.945Z,-6.56
2022-12-18T04:49:57.056Z,-6.61
2022-12-18T04:52:27.074Z,-6.62
2022-12-18T04:54:54.064Z,-6.78
2022-12-18T04:57:21.139Z,-6.64
2022-12-18T04:59:48.339Z,-6.65
2022-12-18T05:02:15.424Z,-6.67
2022-12-18T05:04:42.505Z,-6.70
2022-12-18T05:07:09.582Z,-6.75
2022-12-18T05:09:39.785Z,-6.80
2022-12-18T05:12:07.623Z,-6.88
2022-12-18T05:14:34.691Z,-6.73
2022-12-18T05:17:01.742Z,-6.76
2022-12-18T05:19:28.810Z,-6.86
2022-12-18T05:21:55.944Z,-6.84
2022-12-18T05:24:22.993Z,-6.96
2022-12-18T05:26:50.203Z,-6.86
2022-12-18T05:29:17.289Z,-6.76
2022-12-18T05:31:44.633Z,-6.90
2022-12-18T05:34:12.266Z,-6.86
2022-12-18T05:36:40.006Z,-6.88
2022-12-18T05:39:08.017Z,-6.90
2022-12-18T05:41:35.769Z,-6.87
2022-12-18T05:44:02.807Z,-6.85
2022-12-18T05:46:30.909Z,-6.86
2022-12-18T05:49:02.066Z,-6.87
2022-12-18T05:51:29.268Z,-6.88
2022-12-18T05:53:56.469Z,-6.85
2022-12-18T05:56:24.235Z,-6.85
2022-12-18T05:58:55.378Z,-6.86
2022-12-18T06:01:27.420Z,-6.94
2022-12-18T06:03:56.236Z,-6.93
2022-12-18T06:06:25.538Z,-6.88
2022-12-18T06:08:53.405Z,-6.86
2022-12-18T06:11:23.617Z,-6.87
2022-12-18T06:13:58.175Z,-6.93
2022-12-18T06:16:26.491Z,-6.97
2022-12-18T06:18:53.777Z,-7.00
2022-12-18T06:21:21.028Z,-7.11
2022-12-18T06:23:48.282Z,-6.91
2022-12-18T06:26:16.237Z,-6.92
2022-12-18T06:28:43.420Z,-6.91
2022-12-18T06:31:11.245Z,-7.02
2022-12-18T06:33:39.929Z,-6.90
2022-12-18T06:36:13.172Z,-6.95
2022-12-18T06:38:43.161Z,-6.90
2022-12-18T06:41:11.317Z,-6.92
2022-12-18T06:43:39.035Z,-7.00
2022-12-18T06:46:07.835Z,-6.94
2022-12-18T06:48:36.116Z,-6.96
2022-12-18T06:51:03.768Z,-6.98
2022-12-18T06:53:30.845Z,-6.98
2022-12-18T06:56:10.337Z,-7.00
2022-12-18T06:58:38.976Z,-7.12
2022-12-18T07:01:11.360Z,-7.01
2022-12-18T07:03:41.484Z,-7.08
2022-12-18T07:06:18.690Z,-7.03
2022-12-18T07:08:47.253Z,-7.04
2022-12-18T07:11:14.634Z,-7.11
2022-12-18T07:13:42.514Z,-7.20
2022-12-18T07:16:22.353Z,-7.18
2022-12-18T07:18:51.669Z,-7.23
2022-12-18T07:21:20.561Z,-7.06
2022-12-18T07:23:49.037Z,-7.08
2022-12-18T07:26:19.351Z,-7.12
2022-12-18T07:28:46.526Z,-7.08
2022-12-18T07:31:16.694Z,-7.07
2022-12-18T07:33:44.866Z,-7.08
2022-12-18T07:36:12.544Z,-7.19
2022-12-18T07:38:40.994Z,-7.33
2022-12-18T07:41:13.251Z,-7.12
2022-12-18T07:43:42.616Z,-7.20
2022-12-18T07:46:11.118Z,-7.06
2022-12-18T07:48:41.679Z,-7.08
2022-12-18T07:51:09.244Z,-7.19
2022-12-18T07:53:37.899Z,-6.97
2022-12-18T07:56:28.256Z,-6.97
2022-12-18T07:58:56.834Z,-6.98
2022-12-18T08:01:24.449Z,-6.96
2022-12-18T08:03:52.157Z,-6.98
2022-12-18T08:06:22.530Z,-6.87
2022-12-18T08:08:53.475Z,-6.88
2022-12-18T08:11:20.710Z,-6.81
2022-12-18T08:13:48.688Z,-6.75
2022-12-18T08:16:17.192Z,-6.70
2022-12-18T08:18:44.358Z,-6.60
2022-12-18T08:21:17.726Z,-6.52
2022-12-18T08:23:46.135Z,-6.46
2022-12-18T08:26:14.211Z,-6.40
2022-12-18T08:28:41.899Z,-6.34
2022-12-18T08:31:10.097Z,-6.29
2022-12-18T08:33:39.490Z,-6.14
2022-12-18T08:36:07.640Z,-6.28
2022-12-18T08:38:35.552Z,-6.02
2022-12-18T08:41:08.406Z,-5.95
2022-12-18T08:43:55.081Z,-5.91
2022-12-18T08:46:24.812Z,-5.85
2022-12-18T08:48:52.795Z,-5.72
2022-12-18T08:51:20.486Z,-5.74
2022-12-18T08:53:48.327Z,-5.67
2022-12-18T08:56:15.644Z,-5.69
2022-12-18T08:58:42.822Z,-5.58
2022-12-18T09:01:12.847Z,-5.53
2022-12-18T09:03:41.536Z,-5.46
2022-12-18T09:06:10.086Z,-5.35
2022-12-18T09:08:40.558Z,-5.27
2022-12-18T09:11:14.594Z,-5.19
2022-12-18T09:13:42.240Z,-5.16
2022-12-18T09:16:10.191Z,-5.10
2022-12-18T09:18:37.589Z,-5.03
2022-12-18T09:21:14.748Z,-4.95
2022-12-18T09:23:42.126Z,-4.89
2022-12-18T09:26:09.505Z,-4.86
2022-12-18T09:28:37.505Z,-4.78
2022-12-18T09:31:08.641Z,-4.70
2022-12-18T09:33:37.473Z,-4.62
2022-12-18T09:36:07.600Z,-4.57
2022-12-18T09:38:35.870Z,-4.54
2022-12-18T09:41:31.980Z,-4.54
2022-12-18T09:44:04.066Z,-4.45
2022-12-18T09:46:44.854Z,-4.40
2022-12-18T09:49:19.296Z,-4.34
2022-12-18T09:51:51.902Z,-4.32
2022-12-18T09:54:27.628Z,-4.31
2022-12-18T09:56:55.167Z,-4.20
2022-12-18T09:59:30.813Z,-4.14
2022-12-18T10:01:58.103Z,-4.07
2022-12-18T10:04:29.893Z,-4.01
2022-12-18T10:07:20.220Z,-3.99
2022-12-18T10:10:14.497Z,-4.04
2022-12-18T10:13:04.055Z,-3.91
2022-12-18T10:16:05.725Z,-3.77
2022-12-18T10:18:51.722Z,-3.71
2022-12-18T10:21:44.355Z,-3.67
2022-12-18T10:24:40.952Z,-3.61
2022-12-18T10:27:22.420Z,-3.55
2022-12-18T10:29:49.914Z,-3.48
2022-12-18T10:32:23.512Z,-3.46
2022-12-18T10:34:58.185Z,-3.47
2022-12-18T10:37:29.401Z,-3.43
2022-12-18T10:40:11.902Z,-3.42
2022-12-18T10:42:43.035Z,-3.42
2022-12-18T10:45:16.340Z,-3.34
2022-12-18T10:47:49.453Z,-3.32
2022-12-18T10:50:20.416Z,-3.27
2022-12-18T10:52:58.188Z,-3.27
2022-12-18T10:55:32.261Z,-3.25
2022-12-18T10:58:26.446Z,-3.20
2022-12-18T11:01:02.792Z,-3.16
2022-12-18T11:03:37.463Z,-3.17
2022-12-18T11:06:09.295Z,-3.09
2022-12-18T11:08:40.466Z,-3.05
2022-12-18T11:11:24.902Z,-3.02
2022-12-18T11:14:00.734Z,-2.98
2022-12-18T11:16:29.377Z,-2.91
2022-12-18T11:19:38.800Z,-2.90
2022-12-18T11:22:19.893Z,-2.87
2022-12-18T11:25:30.918Z,-2.85
2022-12-18T11:27:52.308Z,-2.87
2022-12-18T11:30:31.524Z,-2.77
2022-12-18T11:33:16.727Z,-2.73
2022-12-18T11:35:54.625Z,-2.66
2022-12-18T11:38:26.165Z,-2.61
2022-12-18T11:41:00.318Z,-2.62
2022-12-18T11:43:32.467Z,-2.55
2022-12-18T11:46:07.210Z,-2.49
2022-12-18T11:48:42.519Z,-2.43
2022-12-18T11:51:15.661Z,-2.43
2022-12-18T11:53:42.788Z,-2.40
2022-12-18T11:56:33.059Z,-2.41
2022-12-18T11:59:37.722Z,-2.37
2022-12-18T12:02:37.250Z,-2.32
2022-12-18T12:05:22.738Z,-2.31
2022-12-18T12:07:58.712Z,-2.29
2022-12-18T12:10:50.175Z,-2.29
2022-12-18T12:13:56.171Z,-2.29
2022-12-18T12:17:11.226Z,-2.28
2022-12-18T12:20:33.528Z,-2.27
2022-12-18T12:23:08.246Z,-2.28
2022-12-18T12:25:45.557Z,-2.23
2022-12-18T12:28:37.756Z,-2.19
2022-12-18T12:31:16.866Z,-2.18
2022-12-18T12:34:19.445Z,-2.33
2022-12-18T12:37:02.056Z,-2.13
2022-12-18T12:39:33.547Z,-2.12
2022-12-18T12:42:21.247Z,-2.15
2022-12-18T12:44:56.343Z,-2.09
2022-12-18T12:47:31.709Z,-2.04
2022-12-18T12:50:02.456Z,-2.00
2022-12-18T12:52:56.687Z,-2.08
2022-12-18T12:55:26.205Z,-1.98
2022-12-18T12:58:00.112Z,-2.01
2022-12-18T13:00:31.365Z,-1.99
2022-12-18T13:02:58.916Z,-1.95
2022-12-18T13:05:57.359Z,-1.95
2022-12-18T13:08:31.189Z,-1.94
2022-12-18T13:11:53.671Z,-1.89
2022-12-18T13:14:38.248Z,-1.96
2022-12-18T13:17:21.226Z,-1.89
2022-12-18T13:20:15.416Z,-1.84
2022-12-18T13:22:49.638Z,-1.82
2022-12-18T13:25:33.324Z,-1.83
2022-12-18T13:28:10.070Z,-1.82
2022-12-18T13:30:37.032Z,-1.82
2022-12-18T13:33:17.398Z,-1.83
2022-12-18T13:35:47.746Z,-1.82
2022-12-18T13:38:27.133Z,-1.80
2022-12-18T13:40:56.230Z,-1.79
2022-12-18T13:43:23.250Z,-1.80
2022-12-18T13:46:07.276Z,-1.79
2022-12-18T13:48:39.154Z,-1.81
2022-12-18T13:51:11.952Z,-1.78
2022-12-18T13:54:02.667Z,-1.78
2022-12-18T13:56:40.314Z,-1.85
2022-12-18T13:59:15.059Z,-1.76
2022-12-18T14:01:55.308Z,-1.76
2022-12-18T14:04:28.722Z,-1.77
2022-12-18T14:07:13.979Z,-1.79
2022-12-18T14:09:46.255Z,-1.80
2022-12-18T14:12:41.047Z,-1.72
2022-12-18T14:15:18.702Z,-1.77
2022-12-18T14:17:45.801Z,-1.91
2022-12-18T14:20:16.666Z,-1.72
2022-12-18T14:22:49.371Z,-1.71
2022-12-18T14:25:24.054Z,-1.72
2022-12-18T14:28:15.136Z,-1.79
2022-12-18T14:30:45.227Z,-1.69
2022-12-18T14:33:27.383Z,-1.69
2022-12-18T14:36:07.107Z,-1.69
2022-12-18T14:38:40.080Z,-1.69
2022-12-18T14:41:15.192Z,-1.69
2022-12-18T14:43:45.046Z,-1.70
2022-12-18T14:46:37.106Z,-1.68
2022-12-18T14:49:30.155Z,-1.68
2022-12-18T14:51:58.698Z,-1.67
2022-12-18T14:54:27.785Z,-1.74
2022-12-18T14:57:23.719Z,-1.70
2022-12-18T14:59:51.965Z,-1.67
2022-12-18T15:02:28.654Z,-1.67
2022-12-18T15:05:13.091Z,-1.66
2022-12-18T15:07:45.743Z,-1.68
2022-12-18T15:10:17.850Z,-1.67
2022-12-18T15:12:57.966Z,-1.69
2022-12-18T15:15:34.141Z,-1.65
2022-12-18T15:18:02.694Z,-1.66
2022-12-18T15:20:33.626Z,-1.68
2022-12-18T15:23:00.750Z,-1.67
2022-12-18T15:25:33.991Z,-1.66
2022-12-18T15:28:01.234Z,-1.67
2022-12-18T15:30:28.581Z,-1.69
2022-12-18T15:33:24.498Z,-1.69
2022-12-18T15:36:21.328Z,-1.70
2022-12-18T15:38:55.123Z,-1.68
2022-12-18T15:41:24.876Z,-1.78
2022-12-18T15:43:53.722Z,-1.70
2022-12-18T15:46:23.917Z,-1.73
2022-12-18T15:48:56.678Z,-1.70
2022-12-18T15:51:33.086Z,-1.67
2022-12-18T15:54:07.135Z,-1.67
2022-12-18T15:56:52.588Z,-1.67
2022-12-18T15:59:21.611Z,-1.65
2022-12-18T16:01:53.065Z,-1.65
2022-12-18T16:04:21.865Z,-1.64
2022-12-18T16:09:37.696Z,-1.78
2022-12-18T16:12:07.210Z,-1.66
2022-12-18T16:14:37.056Z,-1.69
2022-12-18T16:17:10.293Z,-1.67
2022-12-18T16:19:37.294Z,-1.67
2022-12-18T16:22:04.368Z,-1.61
2022-12-18T16:24:34.226Z,-1.66
2022-12-18T16:27:01.512Z,-1.64
2022-12-18T16:29:29.854Z,-1.63
2022-12-18T16:31:58.652Z,-1.64
2022-12-18T16:34:29.284Z,-1.65
2022-12-18T16:37:06.529Z,-1.70
2022-12-18T16:39:36.553Z,-1.64
2022-12-18T16:42:07.368Z,-1.63
2022-12-18T16:44:35.697Z,-1.63
2022-12-18T16:47:03.863Z,-1.64
2022-12-18T16:49:31.109Z,-1.62
2022-12-18T16:51:58.327Z,-1.65
2022-12-18T16:54:25.544Z,-1.68
2022-12-18T16:56:52.696Z,-1.67
2022-12-18T16:59:19.921Z,-1.63
2022-12-18T17:01:47.231Z,-1.67
2022-12-18T17:04:14.995Z,-1.72
2022-12-18T17:06:44.777Z,-1.62
2022-12-18T17:09:15.499Z,-1.61
2022-12-18T17:11:43.738Z,-1.57
2022-12-18T17:14:16.107Z,-1.58
2022-12-18T17:16:43.617Z,-1.56
2022-12-18T17:19:16.852Z,-1.60
2022-12-18T17:21:48.235Z,-1.61
2022-12-18T17:24:15.992Z,-1.56
2022-12-18T17:26:44.365Z,-1.60
2022-12-18T17:29:17.212Z,-1.58
2022-12-18T17:31:47.099Z,-1.56
2022-12-18T17:34:14.891Z,-1.57
2022-12-18T17:36:43.238Z,-1.58
2022-12-18T17:39:17.424Z,-1.64
2022-12-18T17:41:44.496Z,-1.60
2022-12-18T17:44:11.808Z,-1.56
2022-12-18T17:46:39.832Z,-1.57
2022-12-18T17:49:07.516Z,-1.60
2022-12-18T17:51:35.704Z,-1.60
2022-12-18T17:54:02.784Z,-1.60
2022-12-18T17:56:29.942Z,-1.72
2022-12-18T17:58:57.709Z,-1.70
2022-12-18T18:01:25.901Z,-1.60
2022-12-18T18:03:55.955Z,-1.55
2022-12-18T18:06:23.820Z,-1.54
2022-12-18T18:08:51.926Z,-1.56
2022-12-18T18:11:39.793Z,-1.54
2022-12-18T18:14:19.476Z,-1.55
2022-12-18T18:16:49.269Z,-1.59
2022-12-18T18:19:19.067Z,-1.62
2022-12-18T18:21:48.742Z,-1.57
2022-12-18T18:24:19.143Z,-1.57
2022-12-18T18:26:47.089Z,-1.62
2022-12-18T18:29:19.809Z,-1.56
2022-12-18T18:31:47.870Z,-1.54
2022-12-18T18:34:20.824Z,-1.52
2022-12-18T18:36:48.062Z,-1.51
2022-12-18T18:39:15.509Z,-1.55
2022-12-18T18:41:45.414Z,-1.55
2022-12-18T18:44:16.571Z,-1.49
2022-12-18T18:46:45.082Z,-1.44
2022-12-18T18:49:13.797Z,-1.45
2022-12-18T18:51:42.209Z,-1.48
2022-12-18T18:54:09.977Z,-1.44
2022-12-18T18:57:04.131Z,-1.48
2022-12-18T18:59:30.296Z,-1.46
2022-12-18T19:02:00.698Z,-1.44
2022-12-18T19:04:33.749Z,-1.40
2022-12-18T19:07:01.237Z,-1.35
2022-12-18T19:09:29.370Z,-1.29
2022-12-18T19:12:15.480Z,-1.27
2022-12-18T19:14:43.666Z,-1.25
2022-12-18T19:17:11.085Z,-1.26
2022-12-18T19:19:39.041Z,-1.25
2022-12-18T19:22:07.574Z,-1.25
2022-12-18T19:24:36.506Z,-1.22
2022-12-18T19:27:03.537Z,-1.22
2022-12-18T19:29:30.705Z,-1.16
2022-12-18T19:31:57.886Z,-1.14
2022-12-18T19:34:25.064Z,-1.18
2022-12-18T19:36:56.537Z,-1.15
2022-12-18T19:39:26.836Z,-1.15
2022-12-18T19:41:54.620Z,-1.13
2022-12-18T19:44:21.871Z,-1.15
2022-12-18T19:46:51.953Z,-1.10
2022-12-18T19:49:19.046Z,-1.06
2022-12-18T19:51:46.213Z,-1.05
2022-12-18T19:54:17.082Z,-1.02
2022-12-18T19:56:46.029Z,-1.01
2022-12-18T19:59:13.488Z,-1.00
2022-12-18T20:01:41.618Z,-0.97
2022-12-18T20:04:09.163Z,-0.97
2022-12-18T20:06:49.023Z,-1.00
2022-12-18T20:09:17.176Z,-0.99
2022-12-18T20:11:45.049Z,-1.06
2022-12-18T20:14:13.901Z,-1.04
2022-12-18T20:16:41.619Z,-1.08
2022-12-18T20:19:11.267Z,-1.11
2022-12-18T20:21:38.564Z,-1.14
2022-12-18T20:24:08.967Z,-1.13
2022-12-18T20:26:41.141Z,-1.21
2022-12-18T20:29:08.349Z,-1.17
2022-12-18T20:31:35.711Z,-1.18
2022-12-18T20:34:03.776Z,-1.21
2022-12-18T20:36:37.638Z,-1.19
2022-12-18T20:39:09.831Z,-1.20
2022-12-18T20:41:38.991Z,-1.25
2022-12-18T20:44:23.476Z,-1.23
2022-12-18T20:47:08.721Z,-1.23
2022-12-18T20:49:49.379Z,-1.35
2022-12-18T20:52:16.379Z,-1.27
2022-12-18T20:54:45.143Z,-1.27
2022-12-18T20:57:19.860Z,-1.30
2022-12-18T20:59:48.436Z,-1.30
2022-12-18T21:02:16.601Z,-1.34
2022-12-18T21:04:43.958Z,-1.33
2022-12-18T21:07:11.215Z,-1.36
2022-12-18T21:09:38.761Z,-1.33
2022-12-18T21:12:35.163Z,-1.40
2022-12-18T21:15:10.026Z,-1.45
2022-12-18T21:17:39.440Z,-1.37
2022-12-18T21:20:17.271Z,-1.34
2022-12-18T21:22:44.972Z,-1.38
2022-12-18T21:25:12.382Z,-1.38
2022-12-18T21:27:39.615Z,-1.39
2022-12-18T21:30:07.644Z,-1.41
2022-12-18T21:32:35.587Z,-1.42
2022-12-18T21:35:02.695Z,-1.39
2022-12-18T21:37:29.776Z,-1.47
2022-12-18T21:39:56.762Z,-1.45
2022-12-18T21:42:42.988Z,-1.42
2022-12-18T21:45:12.197Z,-1.47
2022-12-18T21:47:40.122Z,-1.37
2022-12-18T21:50:07.565Z,-1.37
2022-12-18T21:52:35.633Z,-1.35
2022-12-18T21:55:09.044Z,-1.35
2022-12-18T21:57:40.178Z,-1.30
2022-12-18T22:00:18.408Z,-1.37
2022-12-18T22:02:47.419Z,-1.29
2022-12-18T22:05:14.707Z,-1.25
2022-12-18T22:07:41.776Z,-1.24
2022-12-18T22:10:09.181Z,-1.26
2022-12-18T22:12:43.429Z,-1.27
2022-12-18T22:15:21.501Z,-1.21
2022-12-18T22:17:50.591Z,-1.18
2022-12-18T22:20:19.952Z,-1.20
2022-12-18T22:22:48.574Z,-1.20
2022-12-18T22:25:15.687Z,-1.23
2022-12-18T22:27:43.019Z,-1.18
2022-12-18T22:30:14.418Z,-1.16
2022-12-18T22:32:41.807Z,-1.13
2022-12-18T22:35:14.284Z,-1.15
2022-12-18T22:37:42.959Z,-1.12
2022-12-18T22:40:23.718Z,-1.09
2022-12-18T22:42:51.780Z,-1.14
2022-12-18T22:45:20.296Z,-1.12
2022-12-18T22:47:47.334Z,-1.08
2022-12-18T22:50:14.929Z,-1.12
2022-12-18T22:52:42.542Z,-1.13
2022-12-18T22:55:10.153Z,-1.09
2022-12-18T22:57:37.529Z,-1.11
2022-12-18T23:00:10.313Z,-1.09
2022-12-18T23:02:37.593Z,-1.06
2022-12-18T23:05:08.530Z,-1.08
2022-12-18T23:07:36.632Z,-1.05
2022-12-18T23:10:04.112Z,-1.07
2022-12-18T23:12:31.163Z,-1.04
2022-12-18T23:14:59.974Z,-1.06
2022-12-18T23:17:26.995Z,-1.03
2022-12-18T23:19:54.084Z,-1.07
2022-12-18T23:22:21.154Z,-1.07
2022-12-18T23:24:48.180Z,-1.09
2022-12-18T23:27:15.193Z,-1.01
2022-12-18T23:29:42.437Z,-1.00
2022-12-18T23:32:10.567Z,-1.00
2022-12-18T23:34:37.683Z,-1.02
2022-12-18T23:37:06.198Z,-1.00
2022-12-18T23:39:33.336Z,-0.99
2022-12-18T23:42:00.592Z,-0.98
2022-12-18T23:44:28.217Z,-0.97
2022-12-18T23:46:55.582Z,-0.93
2022-12-18T23:49:22.917Z,-0.94
2022-12-18T23:51:50.445Z,-0.93
2022-12-18T23:54:17.640Z,-0.92
2022-12-18T23:56:49.785Z,-0.94
2022-12-18T23:59:19.356Z,-0.91
